createdAt,value
2023-05-02T00:00:10.998Z,1009.36
2023-05-02T00:01:10.991Z,1009.35
2023-05-02T00:02:11.035Z,1009.33
2023-05-02T00:03:11.113Z,1009.31
2023-05-02T00:04:11.053Z,1009.29
2023-05-02T00:05:10.986Z,1009.30
2023-05-02T00:06:11.004Z,1009.33
2023-05-02T00:07:10.943Z,1009.28
2023-05-02T00:08:11.056Z,1009.30
2023-05-02T00:09:10.943Z,1009.29
2023-05-02T00:10:10.926Z,1009.27
2023-05-02T00:11:10.916Z,1009.25
2023-05-02T00:12:10.934Z,1009.28
2023-05-02T00:13:10.907Z,1009.25
2023-05-02T00:14:10.926Z,1009.25
2023-05-02T00:15:10.891Z,1009.28
2023-05-02T00:16:10.921Z,1009.29
2023-05-02T00:17:11.090Z,1009.28
2023-05-02T00:18:10.965Z,1009.25
2023-05-02T00:19:10.882Z,1009.24
2023-05-02T00:20:10.858Z,1009.27
2023-05-02T00:21:10.854Z,1009.20
2023-05-02T00:22:10.850Z,1009.25
2023-05-02T00:23:10.840Z,1009.23
2023-05-02T00:24:10.833Z,1009.23
2023-05-02T00:25:10.833Z,1009.27
2023-05-02T00:26:10.833Z,1009.27
2023-05-02T00:27:10.826Z,1009.26
2023-05-02T00:28:10.807Z,1009.29
2023-05-02T00:29:10.823Z,1009.23
2023-05-02T00:30:10.835Z,1009.21
2023-05-02T00:31:10.863Z,1009.20
2023-05-02T00:32:10.776Z,1009.19
2023-05-02T00:33:10.851Z,1009.20
2023-05-02T00:34:10.850Z,1009.24
2023-05-02T00:35:10.758Z,1009.21
2023-05-02T00:36:10.776Z,1009.21
2023-05-02T00:37:10.790Z,1009.26
2023-05-02T00:38:10.741Z,1009.24
2023-05-02T00:39:10.728Z,1009.28
2023-05-02T00:40:10.727Z,1009.25
2023-05-02T00:41:10.719Z,1009.23
2023-05-02T00:42:10.713Z,1009.23
2023-05-02T00:43:10.734Z,1009.26
2023-05-02T00:44:10.710Z,1009.23
2023-05-02T00:45:10.693Z,1009.23
2023-05-02T00:46:10.767Z,1009.27
2023-05-02T00:47:10.687Z,1009.24
2023-05-02T00:48:10.733Z,1009.22
2023-05-02T00:49:10.664Z,1009.29
2023-05-02T00:50:10.686Z,1009.28
2023-05-02T00:51:10.651Z,1009.26
2023-05-02T00:52:10.759Z,1009.25
2023-05-02T00:53:10.653Z,1009.24
2023-05-02T00:54:10.628Z,1009.21
2023-05-02T00:55:10.628Z,1009.24
2023-05-02T00:56:10.641Z,1009.23
2023-05-02T00:57:10.615Z,1009.27
2023-05-02T00:58:10.601Z,1009.23
2023-05-02T00:59:10.595Z,1009.21
2023-05-02T01:00:10.595Z,1009.21
2023-05-02T01:01:10.687Z,1009.21
2023-05-02T01:02:10.614Z,1009.21
2023-05-02T01:03:10.640Z,1009.21
2023-05-02T01:04:10.744Z,1009.21
2023-05-02T01:05:10.562Z,1009.23
2023-05-02T01:06:10.637Z,1009.21
2023-05-02T01:07:10.529Z,1009.21
2023-05-02T01:08:10.545Z,1009.22
2023-05-02T01:09:10.536Z,1009.23
2023-05-02T01:10:10.530Z,1009.20
2023-05-02T01:11:10.526Z,1009.21
2023-05-02T01:12:10.500Z,1009.26
2023-05-02T01:13:10.498Z,1009.24
2023-05-02T01:14:10.489Z,1009.27
2023-05-02T01:15:10.482Z,1009.26
2023-05-02T01:16:10.500Z,1009.26
2023-05-02T01:17:10.461Z,1009.22
2023-05-02T01:18:10.593Z,1009.27
2023-05-02T01:19:10.452Z,1009.25
2023-05-02T01:20:10.450Z,1009.24
2023-05-02T01:21:10.440Z,1009.28
2023-05-02T01:22:10.428Z,1009.27
2023-05-02T01:23:10.421Z,1009.30
2023-05-02T01:24:10.447Z,1009.28
2023-05-02T01:25:10.409Z,1009.33
2023-05-02T01:26:10.418Z,1009.34
2023-05-02T01:27:10.403Z,1009.34
2023-05-02T01:28:10.390Z,1009.32
2023-05-02T01:29:10.381Z,1009.29
2023-05-02T01:30:10.377Z,1009.35
2023-05-02T01:31:10.433Z,1009.36
2023-05-02T01:32:10.356Z,1009.35
2023-05-02T01:33:10.407Z,1009.32
2023-05-02T01:34:10.377Z,1009.33
2023-05-02T01:35:10.388Z,1009.33
2023-05-02T01:36:10.331Z,1009.37
2023-05-02T01:37:10.360Z,1009.42
2023-05-02T01:38:10.319Z,1009.40
2023-05-02T01:39:10.311Z,1009.46
2023-05-02T01:40:10.340Z,1009.45
2023-05-02T01:41:10.303Z,1009.46
2023-05-02T01:42:10.317Z,1009.45
2023-05-02T01:43:10.296Z,1009.43
2023-05-02T01:44:10.278Z,1009.47
2023-05-02T01:45:10.286Z,1009.46
2023-05-02T01:46:10.282Z,1009.53
2023-05-02T01:47:10.330Z,1009.50
2023-05-02T01:48:10.335Z,1009.51
2023-05-02T01:49:10.244Z,1009.53
2023-05-02T01:50:10.239Z,1009.55
2023-05-02T01:51:10.228Z,1009.54
2023-05-02T01:52:10.217Z,1009.57
2023-05-02T01:53:10.213Z,1009.59
2023-05-02T01:54:10.227Z,1009.56
2023-05-02T01:55:10.208Z,1009.59
2023-05-02T01:56:10.191Z,1009.56
2023-05-02T01:57:10.185Z,1009.57
2023-05-02T01:58:10.183Z,1009.59
2023-05-02T01:59:10.163Z,1009.60
2023-05-02T02:00:10.161Z,1009.63
2023-05-02T02:01:10.243Z,1009.63
2023-05-02T02:02:10.171Z,1009.62
2023-05-02T02:03:10.186Z,1009.66
2023-05-02T02:04:10.299Z,1009.72
2023-05-02T02:05:10.129Z,1009.71
2023-05-02T02:06:10.158Z,1009.71
2023-05-02T02:07:10.117Z,1009.71
2023-05-02T02:08:10.116Z,1009.71
2023-05-02T02:09:10.136Z,1009.69
2023-05-02T02:10:10.105Z,1009.70
2023-05-02T02:11:10.079Z,1009.70
2023-05-02T02:12:10.075Z,1009.74
2023-05-02T02:13:10.073Z,1009.73
2023-05-02T02:14:10.059Z,1009.73
2023-05-02T02:15:10.055Z,1009.76
2023-05-02T02:16:10.103Z,1009.77
2023-05-02T02:17:10.116Z,1009.78
2023-05-02T02:18:10.057Z,1009.80
2023-05-02T02:19:10.028Z,1009.79
2023-05-02T02:20:10.020Z,1009.84
2023-05-02T02:21:10.013Z,1009.82
2023-05-02T02:22:10.001Z,1009.86
2023-05-02T02:23:10.126Z,1009.88
2023-05-02T02:24:09.989Z,1009.87
2023-05-02T02:25:09.991Z,1009.85
2023-05-02T02:26:09.974Z,1009.87
2023-05-02T02:27:09.969Z,1009.86
2023-05-02T02:28:09.959Z,1009.89
2023-05-02T02:29:09.949Z,1009.89
2023-05-02T02:30:09.958Z,1009.87
2023-05-02T02:31:09.969Z,1009.88
2023-05-02T02:32:09.951Z,1009.86
2023-05-02T02:33:10.048Z,1009.83
2023-05-02T02:34:09.919Z,1009.87
2023-05-02T02:35:09.900Z,1009.90
2023-05-02T02:36:09.895Z,1009.92
2023-05-02T02:37:09.902Z,1009.92
2023-05-02T02:38:09.885Z,1009.95
2023-05-02T02:39:09.884Z,1009.94
2023-05-02T02:40:09.864Z,1010.00
2023-05-02T02:41:09.882Z,1009.97
2023-05-02T02:42:09.848Z,1009.98
2023-05-02T02:43:09.864Z,1009.98
2023-05-02T02:44:11.048Z,1010.01
2023-05-02T02:45:09.829Z,1010.05
2023-05-02T02:46:09.867Z,1010.08
2023-05-02T02:47:09.810Z,1010.09
2023-05-02T02:48:09.891Z,1010.10
2023-05-02T02:49:09.792Z,1010.07
2023-05-02T02:50:09.797Z,1010.09
2023-05-02T02:51:09.779Z,1010.13
2023-05-02T02:52:09.765Z,1010.18
2023-05-02T02:53:09.775Z,1010.19
2023-05-02T02:54:22.912Z,1010.22
2023-05-02T02:55:09.752Z,1010.22
2023-05-02T02:56:09.749Z,1010.25
2023-05-02T02:57:09.729Z,1010.29
2023-05-02T02:58:09.727Z,1010.28
2023-05-02T02:59:09.713Z,1010.31
2023-05-02T03:00:09.715Z,1010.29
2023-05-02T03:01:09.730Z,1010.29
2023-05-02T03:02:09.787Z,1010.33
2023-05-02T03:03:09.744Z,1010.33
2023-05-02T03:04:09.697Z,1010.34
2023-05-02T03:05:09.698Z,1010.29
2023-05-02T03:06:09.685Z,1010.34
2023-05-02T03:07:09.670Z,1010.35
2023-05-02T03:08:09.646Z,1010.39
2023-05-02T03:09:09.673Z,1010.44
2023-05-02T03:10:09.639Z,1010.49
2023-05-02T03:11:09.772Z,1010.50
2023-05-02T03:12:09.623Z,1010.54
2023-05-02T03:13:09.609Z,1010.56
2023-05-02T03:14:09.600Z,1010.53
2023-05-02T03:15:09.589Z,1010.57
2023-05-02T03:16:09.654Z,1010.61
2023-05-02T03:17:09.572Z,1010.61
2023-05-02T03:18:09.605Z,1010.61
2023-05-02T03:19:09.584Z,1010.63
2023-05-02T03:20:09.556Z,1010.65
2023-05-02T03:21:09.550Z,1010.67
2023-05-02T03:22:09.558Z,1010.68
2023-05-02T03:23:09.518Z,1010.72
2023-05-02T03:24:09.524Z,1010.75
2023-05-02T03:25:09.598Z,1010.76
2023-05-02T03:26:09.510Z,1010.77
2023-05-02T03:27:09.526Z,1010.79
2023-05-02T03:28:09.502Z,1010.80
2023-05-02T03:29:09.496Z,1010.82
2023-05-02T03:30:09.471Z,1010.78
2023-05-02T03:31:09.535Z,1010.80
2023-05-02T03:32:09.585Z,1010.87
2023-05-02T03:33:09.475Z,1010.84
2023-05-02T03:34:09.450Z,1010.83
2023-05-02T03:35:09.427Z,1010.83
2023-05-02T03:36:09.412Z,1010.88
2023-05-02T03:37:09.407Z,1010.86
2023-05-02T03:38:09.403Z,1010.92
2023-05-02T03:39:09.422Z,1010.93
2023-05-02T03:40:09.404Z,1010.97
2023-05-02T03:41:09.384Z,1010.98
2023-05-02T03:42:09.378Z,1011.00
2023-05-02T03:43:09.356Z,1011.02
2023-05-02T03:44:09.350Z,1011.06
2023-05-02T03:45:09.355Z,1011.06
2023-05-02T03:46:09.346Z,1011.09
2023-05-02T03:47:09.406Z,1011.05
2023-05-02T03:48:09.364Z,1011.10
2023-05-02T03:49:09.315Z,1011.10
2023-05-02T03:50:09.326Z,1011.08
2023-05-02T03:51:09.340Z,1011.12
2023-05-02T03:52:09.310Z,1011.12
2023-05-02T03:53:09.276Z,1011.13
2023-05-02T03:54:09.280Z,1011.11
2023-05-02T03:55:09.267Z,1011.10
2023-05-02T03:56:09.257Z,1011.11
2023-05-02T03:57:09.248Z,1011.13
2023-05-02T03:58:09.243Z,1011.17
2023-05-02T03:59:09.238Z,1011.20
2023-05-02T04:00:09.227Z,1011.25
2023-05-02T04:01:09.224Z,1011.24
2023-05-02T04:02:09.234Z,1011.27
2023-05-02T04:03:09.294Z,1011.29
2023-05-02T04:04:09.261Z,1011.31
2023-05-02T04:05:09.194Z,1011.30
2023-05-02T04:06:09.309Z,1011.28
2023-05-02T04:07:09.171Z,1011.30
2023-05-02T04:08:09.178Z,1011.27
2023-05-02T04:09:09.151Z,1011.29
2023-05-02T04:10:09.145Z,1011.28
2023-05-02T04:11:09.153Z,1011.28
2023-05-02T04:12:09.145Z,1011.31
2023-05-02T04:13:09.122Z,1011.35
2023-05-02T04:14:09.117Z,1011.38
2023-05-02T04:15:09.109Z,1011.40
2023-05-02T04:16:09.097Z,1011.43
2023-05-02T04:18:09.182Z,1011.42
2023-05-02T04:19:09.085Z,1011.41
2023-05-02T04:20:09.158Z,1011.44
2023-05-02T04:21:09.065Z,1011.48
2023-05-02T04:22:09.050Z,1011.43
2023-05-02T04:23:09.057Z,1011.46
2023-05-02T04:24:09.027Z,1011.48
2023-05-02T04:25:09.020Z,1011.47
2023-05-02T04:26:09.016Z,1011.47
2023-05-02T04:27:09.008Z,1011.51
2023-05-02T04:28:09.016Z,1011.51
2023-05-02T04:29:09.002Z,1011.53
2023-05-02T04:30:08.984Z,1011.54
2023-05-02T04:31:09.068Z,1011.59
2023-05-02T04:32:08.970Z,1011.59
2023-05-02T04:33:09.020Z,1011.60
2023-05-02T04:34:08.951Z,1011.63
2023-05-02T04:35:08.956Z,1011.66
2023-05-02T04:36:08.934Z,1011.66
2023-05-02T04:37:08.926Z,1011.65
2023-05-02T04:38:08.923Z,1011.63
2023-05-02T04:39:08.938Z,1011.69
2023-05-02T04:40:08.915Z,1011.67
2023-05-02T04:41:09.782Z,1011.68
2023-05-02T04:42:08.945Z,1011.71
2023-05-02T04:43:08.875Z,1011.77
2023-05-02T04:44:08.868Z,1011.77
2023-05-02T04:45:08.864Z,1011.75
2023-05-02T04:46:08.892Z,1011.81
2023-05-02T04:47:08.854Z,1011.81
2023-05-02T04:48:08.912Z,1011.86
2023-05-02T04:49:08.828Z,1011.84
2023-05-02T04:50:08.822Z,1011.85
2023-05-02T04:51:08.890Z,1011.88
2023-05-02T04:52:08.878Z,1011.89
2023-05-02T04:53:08.816Z,1011.83
2023-05-02T04:54:08.793Z,1011.89
2023-05-02T04:55:08.796Z,1011.88
2023-05-02T04:56:08.777Z,1011.89
2023-05-02T04:57:08.768Z,1011.89
2023-05-02T04:58:08.764Z,1011.90
2023-05-02T04:59:08.754Z,1011.89
2023-05-02T05:00:08.745Z,1011.92
2023-05-02T05:01:08.823Z,1011.96
2023-05-02T05:02:08.934Z,1011.95
2023-05-02T05:03:08.836Z,1011.99
2023-05-02T05:04:08.851Z,1012.02
2023-05-02T05:05:08.732Z,1011.99
2023-05-02T05:06:08.713Z,1012.00
2023-05-02T05:07:08.694Z,1011.97
2023-05-02T05:08:08.706Z,1011.99
2023-05-02T05:09:08.703Z,1012.05
2023-05-02T05:10:08.702Z,1012.05
2023-05-02T05:11:08.672Z,1012.09
2023-05-02T05:12:08.660Z,1012.12
2023-05-02T05:13:08.659Z,1012.17
2023-05-02T05:14:08.653Z,1012.19
2023-05-02T05:15:08.675Z,1012.21
2023-05-02T05:16:08.653Z,1012.20
2023-05-02T05:17:08.621Z,1012.19
2023-05-02T05:18:08.674Z,1012.18
2023-05-02T05:19:08.617Z,1012.23
2023-05-02T05:20:09.552Z,1012.28
2023-05-02T05:21:08.604Z,1012.35
2023-05-02T05:22:08.596Z,1012.39
2023-05-02T05:23:08.580Z,1012.35
2023-05-02T05:24:08.582Z,1012.35
2023-05-02T05:25:08.566Z,1012.35
2023-05-02T05:26:08.558Z,1012.34
2023-05-02T05:27:08.550Z,1012.37
2023-05-02T05:28:08.557Z,1012.36
2023-05-02T05:29:08.533Z,1012.41
2023-05-02T05:30:08.548Z,1012.35
2023-05-02T05:31:08.578Z,1012.32
2023-05-02T05:32:08.564Z,1012.40
2023-05-02T05:33:08.538Z,1012.41
2023-05-02T05:34:08.608Z,1012.42
2023-05-02T05:35:08.510Z,1012.43
2023-05-02T05:36:08.501Z,1012.48
2023-05-02T05:37:08.516Z,1012.53
2023-05-02T05:38:08.478Z,1012.57
2023-05-02T05:39:08.485Z,1012.51
2023-05-02T05:40:08.464Z,1012.56
2023-05-02T05:41:08.460Z,1012.54
2023-05-02T05:42:08.451Z,1012.53
2023-05-02T05:43:08.448Z,1012.56
2023-05-02T05:44:08.436Z,1012.57
2023-05-02T05:45:08.435Z,1012.62
2023-05-02T05:46:08.433Z,1012.66
2023-05-02T05:47:08.472Z,1012.66
2023-05-02T05:48:08.504Z,1012.70
2023-05-02T05:49:08.413Z,1012.73
2023-05-02T05:50:08.408Z,1012.75
2023-05-02T05:51:08.409Z,1012.73
2023-05-02T05:52:08.401Z,1012.72
2023-05-02T05:53:08.403Z,1012.78
2023-05-02T05:54:08.383Z,1012.80
2023-05-02T05:55:08.393Z,1012.84
2023-05-02T05:56:08.374Z,1012.81
2023-05-02T05:57:08.369Z,1012.84
2023-05-02T05:58:08.362Z,1012.89
2023-05-02T05:59:08.360Z,1012.85
2023-05-02T06:00:08.460Z,1012.93
2023-05-02T06:01:08.353Z,1012.90
2023-05-02T06:02:08.389Z,1012.93
2023-05-02T06:03:09.952Z,1012.97
2023-05-02T06:04:08.411Z,1013.00
2023-05-02T06:05:08.473Z,1013.01
2023-05-02T06:06:08.355Z,1013.03
2023-05-02T06:07:08.320Z,1013.09
2023-05-02T06:08:08.324Z,1013.12
2023-05-02T06:09:08.318Z,1013.16
2023-05-02T06:10:08.307Z,1013.20
2023-05-02T06:11:08.330Z,1013.22
2023-05-02T06:12:08.296Z,1013.14
2023-05-02T06:13:08.296Z,1013.14
2023-05-02T06:14:08.289Z,1013.26
2023-05-02T06:15:08.287Z,1013.25
2023-05-02T06:16:08.366Z,1013.32
2023-05-02T06:17:08.279Z,1013.28
2023-05-02T06:18:08.314Z,1013.34
2023-05-02T06:19:08.283Z,1013.32
2023-05-02T06:20:08.277Z,1013.32
2023-05-02T06:21:08.263Z,1013.37
2023-05-02T06:22:08.256Z,1013.41
2023-05-02T06:23:08.250Z,1013.45
2023-05-02T06:24:08.248Z,1013.54
2023-05-02T06:25:08.239Z,1013.50
2023-05-02T06:26:08.240Z,1013.51
2023-05-02T06:27:08.254Z,1013.51
2023-05-02T06:28:08.237Z,1013.53
2023-05-02T06:29:08.223Z,1013.58
2023-05-02T06:30:08.241Z,1013.55
2023-05-02T06:31:08.250Z,1013.57
2023-05-02T06:32:08.344Z,1013.58
2023-05-02T06:33:08.264Z,1013.60
2023-05-02T06:34:08.206Z,1013.61
2023-05-02T06:35:08.197Z,1013.63
2023-05-02T06:36:08.192Z,1013.73
2023-05-02T06:37:08.196Z,1013.70
2023-05-02T06:38:08.185Z,1013.71
2023-05-02T06:39:08.190Z,1013.70
2023-05-02T06:40:08.178Z,1013.76
2023-05-02T06:41:08.172Z,1013.76
2023-05-02T06:42:08.172Z,1013.61
2023-05-02T06:43:08.165Z,1013.80
2023-05-02T06:44:08.162Z,1013.74
2023-05-02T06:45:08.169Z,1013.71
2023-05-02T06:46:08.169Z,1013.73
2023-05-02T06:47:08.201Z,1013.76
2023-05-02T06:48:08.225Z,1013.73
2023-05-02T06:49:08.154Z,1013.76
2023-05-02T06:50:08.140Z,1013.66
2023-05-02T06:51:08.186Z,1013.77
2023-05-02T06:52:08.129Z,1013.76
2023-05-02T06:53:08.128Z,1013.81
2023-05-02T06:54:08.127Z,1013.84
2023-05-02T06:55:08.124Z,1013.81
2023-05-02T06:56:08.126Z,1013.82
2023-05-02T06:57:08.118Z,1013.89
2023-05-02T06:58:08.114Z,1013.79
2023-05-02T06:59:08.106Z,1013.86
2023-05-02T07:00:08.109Z,1013.92
2023-05-02T07:01:08.170Z,1013.92
2023-05-02T07:02:08.095Z,1013.95
2023-05-02T07:03:08.185Z,1013.88
2023-05-02T07:04:08.130Z,1013.90
2023-05-02T07:05:08.088Z,1013.92
2023-05-02T07:06:08.104Z,1013.91
2023-05-02T07:07:08.080Z,1013.88
2023-05-02T07:08:08.093Z,1013.93
2023-05-02T07:09:08.092Z,1013.97
2023-05-02T07:10:08.071Z,1013.97
2023-05-02T07:11:08.076Z,1013.94
2023-05-02T07:12:08.099Z,1014.03
2023-05-02T07:13:08.057Z,1014.00
2023-05-02T07:14:08.058Z,1014.01
2023-05-02T07:15:08.067Z,1014.05
2023-05-02T07:16:08.105Z,1014.11
2023-05-02T07:17:08.143Z,1014.07
2023-05-02T07:18:08.129Z,1014.11
2023-05-02T07:19:08.043Z,1014.05
2023-05-02T07:20:08.046Z,1014.16
2023-05-02T07:21:08.037Z,1014.11
2023-05-02T07:22:08.034Z,1014.14
2023-05-02T07:23:08.028Z,1014.19
2023-05-02T07:24:08.024Z,1014.16
2023-05-02T07:25:08.018Z,1014.18
2023-05-02T07:26:08.029Z,1014.17
2023-05-02T07:27:08.011Z,1014.14
2023-05-02T07:28:08.017Z,1014.18
2023-05-02T07:29:08.007Z,1014.19
2023-05-02T07:30:08.009Z,1014.15
2023-05-02T07:31:08.019Z,1014.18
2023-05-02T07:32:08.048Z,1014.21
2023-05-02T07:33:08.180Z,1014.20
2023-05-02T07:34:08.000Z,1014.25
2023-05-02T07:35:07.992Z,1014.25
2023-05-02T07:36:07.991Z,1014.28
2023-05-02T07:37:07.983Z,1014.25
2023-05-02T07:38:07.993Z,1014.36
2023-05-02T07:39:07.984Z,1014.37
2023-05-02T07:40:07.980Z,1014.33
2023-05-02T07:41:07.972Z,1014.32
2023-05-02T07:42:07.975Z,1014.29
2023-05-02T07:43:09.905Z,1014.41
2023-05-02T07:44:07.961Z,1014.44
2023-05-02T07:45:07.976Z,1014.39
2023-05-02T07:46:08.010Z,1014.39
2023-05-02T07:47:08.014Z,1014.36
2023-05-02T07:48:07.985Z,1014.38
2023-05-02T07:49:07.945Z,1014.43
2023-05-02T07:50:07.950Z,1014.44
2023-05-02T07:51:07.950Z,1014.45
2023-05-02T07:52:07.931Z,1014.47
2023-05-02T07:53:07.932Z,1014.52
2023-05-02T07:54:07.923Z,1014.49
2023-05-02T07:55:07.928Z,1014.54
2023-05-02T07:56:07.929Z,1014.53
2023-05-02T07:57:07.918Z,1014.53
2023-05-02T07:58:07.915Z,1014.57
2023-05-02T07:59:07.902Z,1014.57
2023-05-02T08:00:07.909Z,1014.63
2023-05-02T08:01:07.896Z,1014.64
2023-05-02T08:02:07.921Z,1014.57
2023-05-02T08:03:08.054Z,1014.58
2023-05-02T08:04:08.090Z,1014.57
2023-05-02T08:05:08.075Z,1014.65
2023-05-02T08:06:07.922Z,1014.64
2023-05-02T08:07:07.867Z,1014.62
2023-05-02T08:08:07.869Z,1014.63
2023-05-02T08:09:07.866Z,1014.64
2023-05-02T08:10:07.896Z,1014.65
2023-05-02T08:11:07.863Z,1014.69
2023-05-02T08:12:07.853Z,1014.68
2023-05-02T08:13:07.859Z,1014.72
2023-05-02T08:14:07.841Z,1014.72
2023-05-02T08:15:07.839Z,1014.77
2023-05-02T08:16:07.893Z,1014.74
2023-05-02T08:17:07.824Z,1014.78
2023-05-02T08:18:07.898Z,1014.81
2023-05-02T08:19:07.813Z,1014.81
2023-05-02T08:20:07.808Z,1014.83
2023-05-02T08:21:07.810Z,1014.87
2023-05-02T08:22:07.811Z,1014.89
2023-05-02T08:23:07.821Z,1014.89
2023-05-02T08:24:07.793Z,1014.81
2023-05-02T08:25:07.791Z,1014.94
2023-05-02T08:26:07.789Z,1014.82
2023-05-02T08:27:07.773Z,1015.00
2023-05-02T08:28:07.767Z,1014.99
2023-05-02T08:29:07.781Z,1015.03
2023-05-02T08:30:08.012Z,1015.07
2023-05-02T08:31:07.827Z,1015.02
2023-05-02T08:32:07.993Z,1015.06
2023-05-02T08:33:07.770Z,1015.06
2023-05-02T08:34:07.739Z,1015.07
2023-05-02T08:35:07.740Z,1015.10
2023-05-02T08:36:07.723Z,1015.09
2023-05-02T08:37:07.719Z,1015.04
2023-05-02T08:38:07.718Z,1015.07
2023-05-02T08:39:07.705Z,1015.08
2023-05-02T08:40:07.716Z,1015.09
2023-05-02T08:41:07.725Z,1015.11
2023-05-02T08:42:07.706Z,1015.14
2023-05-02T08:43:07.680Z,1015.14
2023-05-02T08:44:07.693Z,1015.11
2023-05-02T08:45:07.676Z,1015.16
2023-05-02T08:46:07.664Z,1015.20
2023-05-02T08:47:07.708Z,1015.18
2023-05-02T08:48:07.745Z,1015.19
2023-05-02T08:49:07.647Z,1015.22
2023-05-02T08:50:07.662Z,1015.25
2023-05-02T08:51:07.629Z,1015.23
2023-05-02T08:52:07.623Z,1015.24
2023-05-02T08:53:07.621Z,1015.28
2023-05-02T08:54:07.624Z,1015.34
2023-05-02T08:55:07.617Z,1015.37
2023-05-02T08:56:07.597Z,1015.37
2023-05-02T08:57:07.590Z,1015.34
2023-05-02T08:58:07.584Z,1015.33
2023-05-02T08:59:07.577Z,1015.36
2023-05-02T09:00:07.575Z,1015.39
2023-05-02T09:01:07.622Z,1015.38
2023-05-02T09:02:07.561Z,1015.43
2023-05-02T09:03:07.634Z,1015.44
2023-05-02T09:04:07.564Z,1015.48
2023-05-02T09:05:07.543Z,1015.47
2023-05-02T09:06:07.776Z,1015.48
2023-05-02T09:07:07.529Z,1015.44
2023-05-02T09:08:07.524Z,1015.57
2023-05-02T09:09:07.539Z,1015.54
2023-05-02T09:10:07.509Z,1015.60
2023-05-02T09:11:07.511Z,1015.63
2023-05-02T09:12:07.571Z,1015.65
2023-05-02T09:13:07.508Z,1015.69
2023-05-02T09:14:07.483Z,1015.67
2023-05-02T09:15:07.488Z,1015.69
2023-05-02T09:16:07.518Z,1015.69
2023-05-02T09:17:07.559Z,1015.81
2023-05-02T09:18:07.471Z,1015.77
2023-05-02T09:19:07.454Z,1015.74
2023-05-02T09:20:07.446Z,1015.75
2023-05-02T09:21:07.434Z,1015.75
2023-05-02T09:22:07.434Z,1015.78
2023-05-02T09:23:07.426Z,1015.79
2023-05-02T09:24:07.421Z,1015.80
2023-05-02T09:25:07.416Z,1015.86
2023-05-02T09:26:07.411Z,1015.91
2023-05-02T09:27:07.407Z,1015.90
2023-05-02T09:28:07.398Z,1015.84
2023-05-02T09:29:07.384Z,1015.93
2023-05-02T09:30:07.382Z,1015.92
2023-05-02T09:31:07.415Z,1015.88
2023-05-02T09:32:07.458Z,1015.89
2023-05-02T09:33:07.413Z,1015.88
2023-05-02T09:34:07.366Z,1015.88
2023-05-02T09:35:07.353Z,1015.88
2023-05-02T09:36:07.350Z,1015.94
2023-05-02T09:37:07.350Z,1015.94
2023-05-02T09:38:07.337Z,1016.00
2023-05-02T09:39:07.325Z,1016.03
2023-05-02T09:40:07.324Z,1016.03
2023-05-02T09:41:07.320Z,1016.01
2023-05-02T09:42:07.323Z,1016.02
2023-05-02T09:43:07.304Z,1016.03
2023-05-02T09:44:07.306Z,1016.03
2023-05-02T09:45:07.288Z,1015.99
2023-05-02T09:46:07.313Z,1016.01
2023-05-02T09:47:07.278Z,1015.98
2023-05-02T09:48:07.337Z,1015.99
2023-05-02T09:49:07.264Z,1016.01
2023-05-02T09:50:07.260Z,1016.02
2023-05-02T09:51:07.255Z,1016.00
2023-05-02T09:52:07.247Z,1016.03
2023-05-02T09:53:07.260Z,1016.05
2023-05-02T09:54:07.240Z,1016.13
2023-05-02T09:55:07.360Z,1016.20
2023-05-02T09:56:07.217Z,1016.15
2023-05-02T09:57:07.359Z,1016.16
2023-05-02T09:58:07.206Z,1016.17
2023-05-02T09:59:07.204Z,1016.18
2023-05-02T10:00:07.204Z,1016.20
2023-05-02T10:01:07.237Z,1016.20
2023-05-02T10:02:07.191Z,1016.25
2023-05-02T10:03:07.247Z,1016.27
2023-05-02T10:04:07.203Z,1016.29
2023-05-02T10:05:07.172Z,1016.30
2023-05-02T10:06:07.231Z,1016.30
2023-05-02T10:07:07.161Z,1016.34
2023-05-02T10:08:07.153Z,1016.42
2023-05-02T10:09:07.146Z,1016.35
2023-05-02T10:10:07.141Z,1016.40
2023-05-02T10:11:07.140Z,1016.39
2023-05-02T10:12:07.129Z,1016.42
2023-05-02T10:13:07.127Z,1016.40
2023-05-02T10:14:07.117Z,1016.45
2023-05-02T10:15:07.107Z,1016.39
2023-05-02T10:16:07.128Z,1016.49
2023-05-02T10:17:07.105Z,1016.49
2023-05-02T10:18:07.124Z,1016.54
2023-05-02T10:19:07.094Z,1016.55
2023-05-02T10:20:07.094Z,1016.65
2023-05-02T10:21:07.085Z,1016.66
2023-05-02T10:22:07.069Z,1016.67
2023-05-02T10:23:07.070Z,1016.69
2023-05-02T10:24:07.062Z,1016.68
2023-05-02T10:25:07.056Z,1016.70
2023-05-02T10:26:07.047Z,1016.72
2023-05-02T10:27:07.037Z,1016.74
2023-05-02T10:28:07.035Z,1016.76
2023-05-02T10:29:07.036Z,1016.80
2023-05-02T10:30:07.024Z,1016.87
2023-05-02T10:31:07.046Z,1016.82
2023-05-02T10:32:07.025Z,1016.89
2023-05-02T10:33:07.041Z,1016.89
2023-05-02T10:34:06.997Z,1016.78
2023-05-02T10:35:07.114Z,1016.92
2023-05-02T10:36:06.995Z,1016.96
2023-05-02T10:37:06.979Z,1017.02
2023-05-02T10:38:06.979Z,1016.94
2023-05-02T10:39:06.975Z,1017.03
2023-05-02T10:40:06.957Z,1017.04
2023-05-02T10:41:06.952Z,1017.06
2023-05-02T10:42:06.959Z,1017.17
2023-05-02T10:43:06.940Z,1017.14
2023-05-02T10:44:06.939Z,1017.19
2023-05-02T10:45:06.934Z,1017.17
2023-05-02T10:46:06.940Z,1017.19
2023-05-02T10:47:06.945Z,1017.29
2023-05-02T10:48:06.954Z,1017.29
2023-05-02T10:49:06.914Z,1017.26
2023-05-02T10:50:06.898Z,1017.33
2023-05-02T10:51:06.886Z,1017.34
2023-05-02T10:52:06.877Z,1017.40
2023-05-02T10:53:06.877Z,1017.41
2023-05-02T10:54:06.858Z,1017.39
2023-05-02T10:55:06.858Z,1017.44
2023-05-02T10:56:06.848Z,1017.47
2023-05-02T10:57:06.857Z,1017.50
2023-05-02T10:58:06.839Z,1017.51
2023-05-02T10:59:06.824Z,1017.50
2023-05-02T11:00:06.838Z,1017.45
2023-05-02T11:01:06.837Z,1017.47
2023-05-02T11:02:07.315Z,1017.47
2023-05-02T11:03:06.938Z,1017.50
2023-05-02T11:04:06.806Z,1017.37
2023-05-02T11:05:06.792Z,1017.42
2023-05-02T11:06:06.842Z,1017.51
2023-05-02T11:07:06.782Z,1017.49
2023-05-02T11:08:06.760Z,1017.49
2023-05-02T11:09:06.751Z,1017.49
2023-05-02T11:10:06.749Z,1017.46
2023-05-02T11:11:06.815Z,1017.47
2023-05-02T11:12:06.730Z,1017.47
2023-05-02T11:13:06.738Z,1017.48
2023-05-02T11:14:06.712Z,1017.47
2023-05-02T11:15:06.724Z,1017.53
2023-05-02T11:16:06.719Z,1017.50
2023-05-02T11:17:06.711Z,1017.55
2023-05-02T11:18:06.766Z,1017.56
2023-05-02T11:19:06.676Z,1017.56
2023-05-02T11:20:06.680Z,1017.61
2023-05-02T11:21:06.665Z,1017.57
2023-05-02T11:22:06.659Z,1017.62
2023-05-02T11:23:06.649Z,1017.60
2023-05-02T11:24:06.644Z,1017.58
2023-05-02T11:25:06.641Z,1017.54
2023-05-02T11:26:06.631Z,1017.64
2023-05-02T11:27:06.626Z,1017.61
2023-05-02T11:28:06.614Z,1017.60
2023-05-02T11:29:06.614Z,1017.66
2023-05-02T11:30:06.612Z,1017.63
2023-05-02T11:31:06.605Z,1017.63
2023-05-02T11:32:06.604Z,1017.59
2023-05-02T11:33:06.622Z,1017.65
2023-05-02T11:34:06.574Z,1017.64
2023-05-02T11:35:06.570Z,1017.66
2023-05-02T11:36:06.560Z,1017.71
2023-05-02T11:37:06.562Z,1017.69
2023-05-02T11:38:06.550Z,1017.71
2023-05-02T11:39:06.539Z,1017.72
2023-05-02T11:40:06.532Z,1017.68
2023-05-02T11:41:06.534Z,1017.72
2023-05-02T11:42:06.546Z,1017.72
2023-05-02T11:43:06.512Z,1017.66
2023-05-02T11:44:06.512Z,1017.67
2023-05-02T11:45:06.518Z,1017.73
2023-05-02T11:46:06.512Z,1017.69
2023-05-02T11:47:06.483Z,1017.75
2023-05-02T11:48:06.598Z,1017.74
2023-05-02T11:49:08.302Z,1017.75
2023-05-02T11:50:06.471Z,1017.83
2023-05-02T11:51:06.484Z,1017.83
2023-05-02T11:52:06.457Z,1017.79
2023-05-02T11:53:06.449Z,1017.86
2023-05-02T11:54:06.438Z,1017.84
2023-05-02T11:55:06.452Z,1017.88
2023-05-02T11:56:06.426Z,1017.72
2023-05-02T11:57:06.429Z,1017.84
2023-05-02T11:58:06.410Z,1017.86
2023-05-02T11:59:06.424Z,1017.87
2023-05-02T12:00:06.401Z,1017.84
2023-05-02T12:01:06.411Z,1017.90
2023-05-02T12:02:06.401Z,1017.90
2023-05-02T12:03:06.486Z,1017.90
2023-05-02T12:04:06.375Z,1017.90
2023-05-02T12:05:06.419Z,1017.92
2023-05-02T12:06:06.466Z,1017.93